sensor_id;sensor_type;location;lat;lon;timestamp;P1;durP1;ratioP1;P2;durP2;ratioP2
62997;SDS011;55949;52.590;7.330;2023-02-15T00:00:31;25.58;;;14.43;;
62997;SDS011;55949;52.590;7.330;2023-02-15T00:01:31;23.40;;;13.88;;
62997;SDS011;55949;52.590;7.330;2023-02-15T00:02:33;21.42;;;12.43;;
62997;SDS011;55949;52.590;7.330;2023-02-15T00:03:33;22.83;;;13.25;;
62997;SDS011;55949;52.590;7.330;2023-02-15T00:04:34;19.45;;;12.38;;
62997;SDS011;55949;52.590;7.330;2023-02-15T00:05:47;22.88;;;14.05;;
62997;SDS011;55949;52.590;7.330;2023-02-15T00:06:47;26.05;;;13.43;;
62997;SDS011;55949;52.590;7.330;2023-02-15T00:07:49;23.10;;;14.90;;
62997;SDS011;55949;52.590;7.330;2023-02-15T00:08:49;28.35;;;15.48;;
62997;SDS011;55949;52.590;7.330;2023-02-15T00:09:50;25.38;;;15.35;;
62997;SDS011;55949;52.590;7.330;2023-02-15T00:10:51;29.10;;;15.55;;
62997;SDS011;55949;52.590;7.330;2023-02-15T00:11:51;27.15;;;16.45;;
62997;SDS011;55949;52.590;7.330;2023-02-15T00:12:52;30.33;;;17.40;;
62997;SDS011;55949;52.590;7.330;2023-02-15T00:13:53;28.42;;;16.70;;
62997;SDS011;55949;52.590;7.330;2023-02-15T00:14:53;30.08;;;15.82;;
62997;SDS011;55949;52.590;7.330;2023-02-15T00:15:54;26.65;;;15.75;;
62997;SDS011;55949;52.590;7.330;2023-02-15T00:17:01;27.08;;;15.23;;
62997;SDS011;55949;52.590;7.330;2023-02-15T00:18:01;25.98;;;15.52;;
62997;SDS011;55949;52.590;7.330;2023-02-15T00:19:02;26.70;;;15.68;;
62997;SDS011;55949;52.590;7.330;2023-02-15T00:20:04;26.50;;;15.07;;
62997;SDS011;55949;52.590;7.330;2023-02-15T00:21:06;27.58;;;15.40;;
62997;SDS011;55949;52.590;7.330;2023-02-15T00:22:09;24.27;;;14.00;;
62997;SDS011;55949;52.590;7.330;2023-02-15T00:23:10;24.88;;;14.13;;
62997;SDS011;55949;52.590;7.330;2023-02-15T00:24:11;27.02;;;15.50;;
62997;SDS011;55949;52.590;7.330;2023-02-15T00:25:14;24.88;;;13.45;;
62997;SDS011;55949;52.590;7.330;2023-02-15T00:26:15;23.23;;;14.00;;
62997;SDS011;55949;52.590;7.330;2023-02-15T00:27:15;25.05;;;13.13;;
62997;SDS011;55949;52.590;7.330;2023-02-15T00:28:16;22.27;;;13.63;;
62997;SDS011;55949;52.590;7.330;2023-02-15T00:29:17;22.00;;;13.27;;
62997;SDS011;55949;52.590;7.330;2023-02-15T00:30:19;21.25;;;12.93;;
62997;SDS011;55949;52.590;7.330;2023-02-15T00:31:20;19.83;;;13.38;;
62997;SDS011;55949;52.590;7.330;2023-02-15T00:32:21;27.05;;;13.70;;
62997;SDS011;55949;52.590;7.330;2023-02-15T00:33:21;21.92;;;12.55;;
62997;SDS011;55949;52.590;7.330;2023-02-15T00:34:26;24.73;;;13.60;;
62997;SDS011;55949;52.590;7.330;2023-02-15T00:35:27;24.38;;;13.57;;
62997;SDS011;55949;52.590;7.330;2023-02-15T00:36:28;24.58;;;14.20;;
62997;SDS011;55949;52.590;7.330;2023-02-15T00:37:29;26.80;;;14.05;;
62997;SDS011;55949;52.590;7.330;2023-02-15T00:38:30;21.38;;;13.00;;
62997;SDS011;55949;52.590;7.330;2023-02-15T00:39:31;21.90;;;13.27;;
62997;SDS011;55949;52.590;7.330;2023-02-15T00:40:32;28.13;;;13.38;;
62997;SDS011;55949;52.590;7.330;2023-02-15T00:41:33;27.15;;;14.57;;
62997;SDS011;55949;52.590;7.330;2023-02-15T00:42:34;25.75;;;14.63;;
62997;SDS011;55949;52.590;7.330;2023-02-15T00:43:35;22.98;;;14.25;;
62997;SDS011;55949;52.590;7.330;2023-02-15T00:44:36;24.52;;;13.88;;
62997;SDS011;55949;52.590;7.330;2023-02-15T00:45:37;25.25;;;14.18;;
62997;SDS011;55949;52.590;7.330;2023-02-15T00:46:38;24.17;;;13.70;;
62997;SDS011;55949;52.590;7.330;2023-02-15T00:47:39;27.95;;;15.32;;
62997;SDS011;55949;52.590;7.330;2023-02-15T00:48:39;26.52;;;14.70;;
62997;SDS011;55949;52.590;7.330;2023-02-15T00:49:40;25.38;;;14.15;;
62997;SDS011;55949;52.590;7.330;2023-02-15T00:50:41;29.48;;;16.75;;
62997;SDS011;55949;52.590;7.330;2023-02-15T00:51:41;30.50;;;16.35;;
62997;SDS011;55949;52.590;7.330;2023-02-15T00:52:42;26.10;;;15.73;;
62997;SDS011;55949;52.590;7.330;2023-02-15T00:53:43;27.35;;;15.85;;
62997;SDS011;55949;52.590;7.330;2023-02-15T00:54:44;24.35;;;15.38;;
62997;SDS011;55949;52.590;7.330;2023-02-15T00:55:44;23.95;;;14.52;;
62997;SDS011;55949;52.590;7.330;2023-02-15T00:56:45;22.00;;;13.20;;
62997;SDS011;55949;52.590;7.330;2023-02-15T00:57:46;20.85;;;13.50;;
62997;SDS011;55949;52.590;7.330;2023-02-15T00:58:46;24.65;;;14.63;;
62997;SDS011;55949;52.590;7.330;2023-02-15T00:59:47;21.05;;;13.45;;
62997;SDS011;55949;52.590;7.330;2023-02-15T01:00:49;21.33;;;12.73;;
62997;SDS011;55949;52.590;7.330;2023-02-15T01:01:50;19.05;;;12.60;;
62997;SDS011;55949;52.590;7.330;2023-02-15T01:02:51;18.33;;;12.10;;
62997;SDS011;55949;52.590;7.330;2023-02-15T01:03:51;16.35;;;11.18;;
62997;SDS011;55949;52.590;7.330;2023-02-15T01:04:52;16.92;;;11.25;;
62997;SDS011;55949;52.590;7.330;2023-02-15T01:05:53;19.13;;;12.18;;
62997;SDS011;55949;52.590;7.330;2023-02-15T01:06:53;25.23;;;14.57;;
62997;SDS011;55949;52.590;7.330;2023-02-15T01:07:54;23.83;;;14.60;;
62997;SDS011;55949;52.590;7.330;2023-02-15T01:08:55;21.10;;;13.25;;
62997;SDS011;55949;52.590;7.330;2023-02-15T01:09:56;23.45;;;13.23;;
62997;SDS011;55949;52.590;7.330;2023-02-15T01:10:56;21.55;;;13.13;;
62997;SDS011;55949;52.590;7.330;2023-02-15T01:12:02;22.20;;;12.68;;
62997;SDS011;55949;52.590;7.330;2023-02-15T01:13:03;20.45;;;12.55;;
62997;SDS011;55949;52.590;7.330;2023-02-15T01:14:04;19.83;;;12.27;;
62997;SDS011;55949;52.590;7.330;2023-02-15T01:15:05;19.00;;;12.15;;
62997;SDS011;55949;52.590;7.330;2023-02-15T01:16:06;17.55;;;11.15;;
62997;SDS011;55949;52.590;7.330;2023-02-15T01:17:07;19.05;;;12.35;;
62997;SDS011;55949;52.590;7.330;2023-02-15T01:18:08;20.70;;;11.88;;
62997;SDS011;55949;52.590;7.330;2023-02-15T01:19:09;17.90;;;11.88;;
62997;SDS011;55949;52.590;7.330;2023-02-15T01:20:10;18.40;;;12.05;;
62997;SDS011;55949;52.590;7.330;2023-02-15T01:21:16;21.95;;;13.05;;
62997;SDS011;55949;52.590;7.330;2023-02-15T01:22:18;18.55;;;12.45;;
62997;SDS011;55949;52.590;7.330;2023-02-15T01:23:19;22.40;;;13.85;;
62997;SDS011;55949;52.590;7.330;2023-02-15T01:24:20;25.30;;;13.75;;
62997;SDS011;55949;52.590;7.330;2023-02-15T01:25:21;29.50;;;16.23;;
62997;SDS011;55949;52.590;7.330;2023-02-15T01:26:23;27.50;;;16.40;;
62997;SDS011;55949;52.590;7.330;2023-02-15T01:27:24;30.48;;;17.05;;
62997;SDS011;55949;52.590;7.330;2023-02-15T01:28:24;26.40;;;16.38;;
62997;SDS011;55949;52.590;7.330;2023-02-15T01:29:25;29.33;;;16.85;;
62997;SDS011;55949;52.590;7.330;2023-02-15T01:30:26;23.30;;;15.02;;
62997;SDS011;55949;52.590;7.330;2023-02-15T01:31:27;23.85;;;15.27;;
62997;SDS011;55949;52.590;7.330;2023-02-15T01:32:27;22.90;;;14.90;;
62997;SDS011;55949;52.590;7.330;2023-02-15T01:33:28;29.15;;;16.65;;
62997;SDS011;55949;52.590;7.330;2023-02-15T01:34:29;33.45;;;18.65;;
62997;SDS011;55949;52.590;7.330;2023-02-15T01:35:30;26.45;;;16.52;;
62997;SDS011;55949;52.590;7.330;2023-02-15T01:36:32;29.55;;;16.20;;
62997;SDS011;55949;52.590;7.330;2023-02-15T01:37:34;27.83;;;16.95;;
62997;SDS011;55949;52.590;7.330;2023-02-15T01:38:35;28.45;;;17.30;;
62997;SDS011;55949;52.590;7.330;2023-02-15T01:39:36;26.65;;;16.73;;
62997;SDS011;55949;52.590;7.330;2023-02-15T01:40:36;29.27;;;16.77;;
62997;SDS011;55949;52.590;7.330;2023-02-15T01:41:38;32.90;;;18.08;;
62997;SDS011;55949;52.590;7.330;2023-02-15T01:42:39;32.42;;;17.75;;
62997;SDS011;55949;52.590;7.330;2023-02-15T01:43:44;29.17;;;17.35;;
62997;SDS011;55949;52.590;7.330;2023-02-15T01:44:54;36.45;;;18.42;;
62997;SDS011;55949;52.590;7.330;2023-02-15T01:45:59;33.20;;;17.70;;
62997;SDS011;55949;52.590;7.330;2023-02-15T01:47:00;24.50;;;16.05;;
62997;SDS011;55949;52.590;7.330;2023-02-15T01:49:21;30.38;;;17.67;;
62997;SDS011;55949;52.590;7.330;2023-02-15T01:50:45;34.15;;;18.67;;
62997;SDS011;55949;52.590;7.330;2023-02-15T01:52:00;33.40;;;17.85;;
62997;SDS011;55949;52.590;7.330;2023-02-15T01:53:03;34.50;;;19.33;;
62997;SDS011;55949;52.590;7.330;2023-02-15T01:54:17;30.23;;;17.80;;
62997;SDS011;55949;52.590;7.330;2023-02-15T01:55:33;29.50;;;17.80;;
62997;SDS011;55949;52.590;7.330;2023-02-15T01:56:47;28.15;;;16.95;;
62997;SDS011;55949;52.590;7.330;2023-02-15T01:57:48;29.42;;;17.17;;
62997;SDS011;55949;52.590;7.330;2023-02-15T01:58:51;27.20;;;15.55;;
62997;SDS011;55949;52.590;7.330;2023-02-15T01:59:56;27.15;;;16.80;;
62997;SDS011;55949;52.590;7.330;2023-02-15T02:01:00;27.08;;;16.20;;
62997;SDS011;55949;52.590;7.330;2023-02-15T02:02:03;28.23;;;17.27;;
62997;SDS011;55949;52.590;7.330;2023-02-15T02:03:07;31.52;;;19.13;;
62997;SDS011;55949;52.590;7.330;2023-02-15T02:04:13;26.33;;;18.10;;
62997;SDS011;55949;52.590;7.330;2023-02-15T02:05:23;30.98;;;18.02;;
62997;SDS011;55949;52.590;7.330;2023-02-15T02:06:24;32.72;;;19.00;;
62997;SDS011;55949;52.590;7.330;2023-02-15T02:07:27;33.50;;;18.55;;
62997;SDS011;55949;52.590;7.330;2023-02-15T02:08:29;27.15;;;16.92;;
62997;SDS011;55949;52.590;7.330;2023-02-15T02:09:30;32.58;;;19.75;;
62997;SDS011;55949;52.590;7.330;2023-02-15T02:10:32;32.05;;;18.35;;
62997;SDS011;55949;52.590;7.330;2023-02-15T02:11:32;31.73;;;18.33;;
62997;SDS011;55949;52.590;7.330;2023-02-15T02:12:34;30.35;;;18.35;;
62997;SDS011;55949;52.590;7.330;2023-02-15T02:13:37;28.45;;;18.45;;
62997;SDS011;55949;52.590;7.330;2023-02-15T02:14:42;35.25;;;19.63;;
62997;SDS011;55949;52.590;7.330;2023-02-15T02:16:00;28.60;;;17.77;;
62997;SDS011;55949;52.590;7.330;2023-02-15T02:19:47;31.70;;;18.52;;
62997;SDS011;55949;52.590;7.330;2023-02-15T02:27:09;36.17;;;19.83;;
62997;SDS011;55949;52.590;7.330;2023-02-15T02:34:33;29.00;;;16.25;;
62997;SDS011;55949;52.590;7.330;2023-02-15T02:37:23;26.58;;;15.23;;
62997;SDS011;55949;52.590;7.330;2023-02-15T02:40:53;29.55;;;15.05;;
62997;SDS011;55949;52.590;7.330;2023-02-15T02:43:12;32.08;;;16.95;;
62997;SDS011;55949;52.590;7.330;2023-02-15T02:44:27;33.25;;;17.27;;
62997;SDS011;55949;52.590;7.330;2023-02-15T02:45:32;37.33;;;17.63;;
62997;SDS011;55949;52.590;7.330;2023-02-15T02:47:46;29.65;;;17.63;;
62997;SDS011;55949;52.590;7.330;2023-02-15T02:48:53;31.10;;;17.58;;
62997;SDS011;55949;52.590;7.330;2023-02-15T02:49:59;34.97;;;18.45;;
62997;SDS011;55949;52.590;7.330;2023-02-15T02:51:05;34.75;;;19.88;;
62997;SDS011;55949;52.590;7.330;2023-02-15T02:52:52;36.42;;;19.83;;
62997;SDS011;55949;52.590;7.330;2023-02-15T02:53:45;33.15;;;18.15;;
62997;SDS011;55949;52.590;7.330;2023-02-15T02:54:45;36.03;;;18.58;;
62997;SDS011;55949;52.590;7.330;2023-02-15T02:55:51;29.42;;;16.33;;
62997;SDS011;55949;52.590;7.330;2023-02-15T02:56:57;25.55;;;14.90;;
62997;SDS011;55949;52.590;7.330;2023-02-15T02:58:19;24.55;;;14.30;;
62997;SDS011;55949;52.590;7.330;2023-02-15T02:59:25;23.58;;;13.50;;
62997;SDS011;55949;52.590;7.330;2023-02-15T03:00:32;24.25;;;14.45;;
62997;SDS011;55949;52.590;7.330;2023-02-15T03:03:03;29.88;;;15.98;;
62997;SDS011;55949;52.590;7.330;2023-02-15T03:04:20;26.48;;;15.63;;
62997;SDS011;55949;52.590;7.330;2023-02-15T03:05:27;30.33;;;15.82;;
62997;SDS011;55949;52.590;7.330;2023-02-15T03:06:33;23.10;;;14.48;;
62997;SDS011;55949;52.590;7.330;2023-02-15T03:07:48;30.85;;;16.90;;
62997;SDS011;55949;52.590;7.330;2023-02-15T03:08:54;28.88;;;16.52;;
62997;SDS011;55949;52.590;7.330;2023-02-15T03:10:17;24.25;;;13.90;;
62997;SDS011;55949;52.590;7.330;2023-02-15T03:11:21;22.88;;;13.23;;
62997;SDS011;55949;52.590;7.330;2023-02-15T03:13:31;25.48;;;14.10;;
62997;SDS011;55949;52.590;7.330;2023-02-15T03:14:33;23.33;;;14.05;;
62997;SDS011;55949;52.590;7.330;2023-02-15T03:15:36;23.88;;;14.68;;
62997;SDS011;55949;52.590;7.330;2023-02-15T03:16:58;24.10;;;14.98;;
62997;SDS011;55949;52.590;7.330;2023-02-15T03:17:59;24.90;;;14.43;;
62997;SDS011;55949;52.590;7.330;2023-02-15T03:19:05;26.90;;;15.77;;
62997;SDS011;55949;52.590;7.330;2023-02-15T03:21:15;24.35;;;14.32;;
62997;SDS011;55949;52.590;7.330;2023-02-15T03:22:24;26.67;;;15.10;;
62997;SDS011;55949;52.590;7.330;2023-02-15T03:23:29;23.77;;;14.77;;
62997;SDS011;55949;52.590;7.330;2023-02-15T03:24:34;27.52;;;15.63;;
62997;SDS011;55949;52.590;7.330;2023-02-15T03:25:39;25.63;;;15.60;;
62997;SDS011;55949;52.590;7.330;2023-02-15T03:26:42;27.58;;;16.20;;
62997;SDS011;55949;52.590;7.330;2023-02-15T03:27:47;26.65;;;14.63;;
62997;SDS011;55949;52.590;7.330;2023-02-15T03:28:54;26.65;;;14.52;;
62997;SDS011;55949;52.590;7.330;2023-02-15T03:29:57;22.27;;;14.27;;
62997;SDS011;55949;52.590;7.330;2023-02-15T03:31:00;24.73;;;15.07;;
62997;SDS011;55949;52.590;7.330;2023-02-15T03:32:03;27.75;;;15.93;;
62997;SDS011;55949;52.590;7.330;2023-02-15T03:33:08;26.48;;;15.48;;
62997;SDS011;55949;52.590;7.330;2023-02-15T03:34:10;25.65;;;16.00;;
62997;SDS011;55949;52.590;7.330;2023-02-15T03:35:13;24.17;;;14.60;;
62997;SDS011;55949;52.590;7.330;2023-02-15T03:38:44;28.25;;;16.00;;
62997;SDS011;55949;52.590;7.330;2023-02-15T03:39:53;28.30;;;15.95;;
62997;SDS011;55949;52.590;7.330;2023-02-15T03:41:17;28.08;;;15.50;;
62997;SDS011;55949;52.590;7.330;2023-02-15T03:42:25;27.60;;;16.52;;
62997;SDS011;55949;52.590;7.330;2023-02-15T03:44:04;29.15;;;17.60;;
62997;SDS011;55949;52.590;7.330;2023-02-15T03:45:08;32.00;;;18.52;;
62997;SDS011;55949;52.590;7.330;2023-02-15T03:46:22;30.65;;;17.65;;
62997;SDS011;55949;52.590;7.330;2023-02-15T03:47:30;31.15;;;18.58;;
62997;SDS011;55949;52.590;7.330;2023-02-15T03:48:38;32.58;;;18.05;;
62997;SDS011;55949;52.590;7.330;2023-02-15T03:49:42;32.92;;;18.77;;
62997;SDS011;55949;52.590;7.330;2023-02-15T03:51:32;36.30;;;19.17;;
62997;SDS011;55949;52.590;7.330;2023-02-15T03:52:36;34.55;;;19.02;;
62997;SDS011;55949;52.590;7.330;2023-02-15T03:53:37;33.72;;;18.85;;
62997;SDS011;55949;52.590;7.330;2023-02-15T03:54:39;37.65;;;19.15;;
62997;SDS011;55949;52.590;7.330;2023-02-15T03:55:47;34.28;;;18.75;;
62997;SDS011;55949;52.590;7.330;2023-02-15T03:56:48;35.97;;;18.92;;
62997;SDS011;55949;52.590;7.330;2023-02-15T03:58:09;32.90;;;18.10;;
62997;SDS011;55949;52.590;7.330;2023-02-15T03:59:28;33.17;;;18.15;;
62997;SDS011;55949;52.590;7.330;2023-02-15T04:01:33;31.15;;;17.92;;
62997;SDS011;55949;52.590;7.330;2023-02-15T04:03:40;29.88;;;16.80;;
62997;SDS011;55949;52.590;7.330;2023-02-15T04:04:46;31.67;;;16.25;;
62997;SDS011;55949;52.590;7.330;2023-02-15T04:05:47;27.23;;;16.23;;
62997;SDS011;55949;52.590;7.330;2023-02-15T04:06:48;32.70;;;17.50;;
62997;SDS011;55949;52.590;7.330;2023-02-15T04:07:49;29.05;;;16.48;;
62997;SDS011;55949;52.590;7.330;2023-02-15T04:08:50;30.30;;;16.90;;
62997;SDS011;55949;52.590;7.330;2023-02-15T04:10:09;29.83;;;17.25;;
62997;SDS011;55949;52.590;7.330;2023-02-15T04:11:29;28.58;;;15.90;;
62997;SDS011;55949;52.590;7.330;2023-02-15T04:12:30;29.48;;;15.90;;
62997;SDS011;55949;52.590;7.330;2023-02-15T04:13:31;30.77;;;16.95;;
62997;SDS011;55949;52.590;7.330;2023-02-15T04:14:32;29.90;;;16.85;;
62997;SDS011;55949;52.590;7.330;2023-02-15T04:15:53;30.13;;;16.02;;
62997;SDS011;55949;52.590;7.330;2023-02-15T04:17:05;30.45;;;16.73;;
62997;SDS011;55949;52.590;7.330;2023-02-15T04:18:06;31.95;;;17.67;;
62997;SDS011;55949;52.590;7.330;2023-02-15T04:19:06;29.27;;;16.40;;
62997;SDS011;55949;52.590;7.330;2023-02-15T04:20:26;27.85;;;17.10;;
62997;SDS011;55949;52.590;7.330;2023-02-15T04:21:45;34.33;;;16.30;;
62997;SDS011;55949;52.590;7.330;2023-02-15T04:23:07;29.85;;;16.13;;
62997;SDS011;55949;52.590;7.330;2023-02-15T04:24:26;29.55;;;16.17;;
62997;SDS011;55949;52.590;7.330;2023-02-15T04:25:46;27.13;;;15.45;;
62997;SDS011;55949;52.590;7.330;2023-02-15T04:26:46;26.73;;;15.23;;
62997;SDS011;55949;52.590;7.330;2023-02-15T04:27:53;26.27;;;14.48;;
62997;SDS011;55949;52.590;7.330;2023-02-15T04:28:54;31.40;;;15.82;;
62997;SDS011;55949;52.590;7.330;2023-02-15T04:29:55;25.30;;;14.32;;
62997;SDS011;55949;52.590;7.330;2023-02-15T04:30:55;27.55;;;15.40;;
62997;SDS011;55949;52.590;7.330;2023-02-15T04:31:57;25.80;;;16.27;;
62997;SDS011;55949;52.590;7.330;2023-02-15T04:32:58;28.27;;;16.90;;
62997;SDS011;55949;52.590;7.330;2023-02-15T04:33:59;29.70;;;16.42;;
62997;SDS011;55949;52.590;7.330;2023-02-15T04:35:00;29.98;;;16.08;;
62997;SDS011;55949;52.590;7.330;2023-02-15T04:36:02;29.45;;;16.67;;
62997;SDS011;55949;52.590;7.330;2023-02-15T04:37:04;27.85;;;15.65;;
62997;SDS011;55949;52.590;7.330;2023-02-15T04:38:05;25.23;;;15.13;;
62997;SDS011;55949;52.590;7.330;2023-02-15T04:39:06;32.63;;;16.98;;
62997;SDS011;55949;52.590;7.330;2023-02-15T04:40:08;28.83;;;16.98;;
62997;SDS011;55949;52.590;7.330;2023-02-15T04:41:11;29.58;;;16.60;;
62997;SDS011;55949;52.590;7.330;2023-02-15T04:42:13;31.92;;;17.08;;
62997;SDS011;55949;52.590;7.330;2023-02-15T04:43:13;31.85;;;17.33;;
62997;SDS011;55949;52.590;7.330;2023-02-15T04:44:14;30.88;;;17.08;;
62997;SDS011;55949;52.590;7.330;2023-02-15T04:45:15;28.25;;;16.77;;
62997;SDS011;55949;52.590;7.330;2023-02-15T04:46:16;29.58;;;15.82;;
62997;SDS011;55949;52.590;7.330;2023-02-15T04:47:17;28.55;;;15.93;;
62997;SDS011;55949;52.590;7.330;2023-02-15T04:48:18;28.98;;;16.40;;
62997;SDS011;55949;52.590;7.330;2023-02-15T04:49:19;29.17;;;16.77;;
62997;SDS011;55949;52.590;7.330;2023-02-15T04:50:19;30.08;;;16.20;;
62997;SDS011;55949;52.590;7.330;2023-02-15T04:51:20;34.22;;;17.88;;
62997;SDS011;55949;52.590;7.330;2023-02-15T04:52:21;35.47;;;19.50;;
62997;SDS011;55949;52.590;7.330;2023-02-15T04:53:22;31.48;;;18.52;;
62997;SDS011;55949;52.590;7.330;2023-02-15T04:54:22;35.38;;;18.27;;
62997;SDS011;55949;52.590;7.330;2023-02-15T04:55:23;33.10;;;17.83;;
62997;SDS011;55949;52.590;7.330;2023-02-15T04:56:24;31.80;;;16.27;;
62997;SDS011;55949;52.590;7.330;2023-02-15T04:57:24;26.98;;;15.63;;
62997;SDS011;55949;52.590;7.330;2023-02-15T04:58:25;26.50;;;15.40;;
62997;SDS011;55949;52.590;7.330;2023-02-15T04:59:26;28.08;;;15.20;;
62997;SDS011;55949;52.590;7.330;2023-02-15T05:00:26;21.23;;;14.07;;
62997;SDS011;55949;52.590;7.330;2023-02-15T05:01:27;26.48;;;15.25;;
62997;SDS011;55949;52.590;7.330;2023-02-15T05:02:28;26.77;;;15.32;;
62997;SDS011;55949;52.590;7.330;2023-02-15T05:03:28;26.88;;;15.50;;
62997;SDS011;55949;52.590;7.330;2023-02-15T05:04:29;22.08;;;14.30;;
62997;SDS011;55949;52.590;7.330;2023-02-15T05:05:30;25.70;;;14.95;;
62997;SDS011;55949;52.590;7.330;2023-02-15T05:06:31;27.13;;;14.10;;
62997;SDS011;55949;52.590;7.330;2023-02-15T05:07:31;27.55;;;16.60;;
62997;SDS011;55949;52.590;7.330;2023-02-15T05:08:32;29.95;;;15.63;;
62997;SDS011;55949;52.590;7.330;2023-02-15T05:09:33;29.65;;;15.98;;
62997;SDS011;55949;52.590;7.330;2023-02-15T05:10:34;27.35;;;15.05;;
62997;SDS011;55949;52.590;7.330;2023-02-15T05:11:34;26.30;;;14.63;;
62997;SDS011;55949;52.590;7.330;2023-02-15T05:12:35;27.08;;;14.23;;
62997;SDS011;55949;52.590;7.330;2023-02-15T05:13:36;26.73;;;16.02;;
62997;SDS011;55949;52.590;7.330;2023-02-15T05:14:36;30.10;;;16.08;;
62997;SDS011;55949;52.590;7.330;2023-02-15T05:15:37;26.35;;;15.55;;
62997;SDS011;55949;52.590;7.330;2023-02-15T05:16:38;25.90;;;14.70;;
62997;SDS011;55949;52.590;7.330;2023-02-15T05:17:38;26.30;;;15.63;;
62997;SDS011;55949;52.590;7.330;2023-02-15T05:18:39;27.02;;;15.02;;
62997;SDS011;55949;52.590;7.330;2023-02-15T05:19:40;25.42;;;16.35;;
62997;SDS011;55949;52.590;7.330;2023-02-15T05:20:40;26.13;;;16.05;;
62997;SDS011;55949;52.590;7.330;2023-02-15T05:21:41;27.20;;;16.17;;
62997;SDS011;55949;52.590;7.330;2023-02-15T05:22:42;28.65;;;16.15;;
62997;SDS011;55949;52.590;7.330;2023-02-15T05:23:42;32.30;;;17.08;;
62997;SDS011;55949;52.590;7.330;2023-02-15T05:24:43;25.67;;;14.90;;
62997;SDS011;55949;52.590;7.330;2023-02-15T05:26:02;31.17;;;16.35;;
62997;SDS011;55949;52.590;7.330;2023-02-15T05:27:22;34.75;;;17.35;;
62997;SDS011;55949;52.590;7.330;2023-02-15T05:28:41;37.25;;;18.77;;
62997;SDS011;55949;52.590;7.330;2023-02-15T05:29:42;38.92;;;19.27;;
62997;SDS011;55949;52.590;7.330;2023-02-15T05:30:42;33.30;;;18.60;;
62997;SDS011;55949;52.590;7.330;2023-02-15T05:31:43;34.25;;;17.65;;
62997;SDS011;55949;52.590;7.330;2023-02-15T05:32:47;60.33;;;16.73;;
62997;SDS011;55949;52.590;7.330;2023-02-15T05:33:47;30.75;;;18.10;;
62997;SDS011;55949;52.590;7.330;2023-02-15T05:34:48;29.17;;;17.30;;
62997;SDS011;55949;52.590;7.330;2023-02-15T05:35:48;34.13;;;19.55;;
62997;SDS011;55949;52.590;7.330;2023-02-15T05:36:49;34.80;;;19.00;;
62997;SDS011;55949;52.590;7.330;2023-02-15T05:37:51;29.48;;;17.23;;
62997;SDS011;55949;52.590;7.330;2023-02-15T05:38:52;37.25;;;19.45;;
62997;SDS011;55949;52.590;7.330;2023-02-15T05:39:52;86.30;;;23.23;;
62997;SDS011;55949;52.590;7.330;2023-02-15T05:40:53;74.63;;;21.73;;
62997;SDS011;55949;52.590;7.330;2023-02-15T05:41:54;149.52;;;25.35;;
62997;SDS011;55949;52.590;7.330;2023-02-15T05:42:58;188.25;;;27.20;;
62997;SDS011;55949;52.590;7.330;2023-02-15T05:43:58;149.60;;;25.48;;
62997;SDS011;55949;52.590;7.330;2023-02-15T05:44:59;47.33;;;22.98;;
62997;SDS011;55949;52.590;7.330;2023-02-15T05:46:00;44.17;;;20.73;;
62997;SDS011;55949;52.590;7.330;2023-02-15T05:47:01;42.75;;;21.40;;
62997;SDS011;55949;52.590;7.330;2023-02-15T05:48:02;48.75;;;22.77;;
62997;SDS011;55949;52.590;7.330;2023-02-15T05:49:03;41.55;;;21.17;;
62997;SDS011;55949;52.590;7.330;2023-02-15T05:50:04;38.85;;;20.48;;
62997;SDS011;55949;52.590;7.330;2023-02-15T05:51:06;36.20;;;20.38;;
62997;SDS011;55949;52.590;7.330;2023-02-15T05:52:09;37.40;;;19.83;;
62997;SDS011;55949;52.590;7.330;2023-02-15T05:53:12;34.72;;;19.60;;
62997;SDS011;55949;52.590;7.330;2023-02-15T05:54:12;36.25;;;20.15;;
62997;SDS011;55949;52.590;7.330;2023-02-15T05:55:13;33.20;;;18.40;;
62997;SDS011;55949;52.590;7.330;2023-02-15T05:56:14;34.38;;;18.15;;
62997;SDS011;55949;52.590;7.330;2023-02-15T05:57:14;31.98;;;16.98;;
62997;SDS011;55949;52.590;7.330;2023-02-15T05:58:15;32.50;;;17.60;;
62997;SDS011;55949;52.590;7.330;2023-02-15T05:59:16;36.40;;;19.92;;
62997;SDS011;55949;52.590;7.330;2023-02-15T06:00:17;40.72;;;20.35;;
62997;SDS011;55949;52.590;7.330;2023-02-15T06:01:18;35.75;;;20.10;;
62997;SDS011;55949;52.590;7.330;2023-02-15T06:02:21;36.30;;;19.95;;
62997;SDS011;55949;52.590;7.330;2023-02-15T06:03:22;40.28;;;21.52;;
62997;SDS011;55949;52.590;7.330;2023-02-15T06:04:23;30.88;;;18.35;;
62997;SDS011;55949;52.590;7.330;2023-02-15T06:05:24;30.15;;;18.10;;
62997;SDS011;55949;52.590;7.330;2023-02-15T06:06:25;32.80;;;18.75;;
62997;SDS011;55949;52.590;7.330;2023-02-15T06:07:25;33.05;;;18.55;;
62997;SDS011;55949;52.590;7.330;2023-02-15T06:08:26;35.78;;;19.67;;
62997;SDS011;55949;52.590;7.330;2023-02-15T06:09:27;36.95;;;19.73;;
62997;SDS011;55949;52.590;7.330;2023-02-15T06:10:27;38.47;;;21.70;;
62997;SDS011;55949;52.590;7.330;2023-02-15T06:11:29;36.97;;;20.25;;
62997;SDS011;55949;52.590;7.330;2023-02-15T06:12:30;32.15;;;19.27;;
62997;SDS011;55949;52.590;7.330;2023-02-15T06:13:31;28.25;;;17.88;;
62997;SDS011;55949;52.590;7.330;2023-02-15T06:14:33;34.67;;;19.25;;
62997;SDS011;55949;52.590;7.330;2023-02-15T06:15:33;32.47;;;19.27;;
62997;SDS011;55949;52.590;7.330;2023-02-15T06:16:34;28.52;;;18.27;;
62997;SDS011;55949;52.590;7.330;2023-02-15T06:17:35;28.02;;;17.10;;
62997;SDS011;55949;52.590;7.330;2023-02-15T06:18:35;28.83;;;16.77;;
62997;SDS011;55949;52.590;7.330;2023-02-15T06:19:36;21.77;;;13.98;;
62997;SDS011;55949;52.590;7.330;2023-02-15T06:20:37;22.80;;;13.48;;
62997;SDS011;55949;52.590;7.330;2023-02-15T06:21:37;20.73;;;13.70;;
62997;SDS011;55949;52.590;7.330;2023-02-15T06:22:38;20.30;;;13.70;;
62997;SDS011;55949;52.590;7.330;2023-02-15T06:23:39;21.98;;;13.63;;
62997;SDS011;55949;52.590;7.330;2023-02-15T06:24:40;18.92;;;13.27;;
62997;SDS011;55949;52.590;7.330;2023-02-15T06:25:43;73.95;;;13.63;;
62997;SDS011;55949;52.590;7.330;2023-02-15T06:26:45;22.77;;;12.73;;
62997;SDS011;55949;52.590;7.330;2023-02-15T06:27:45;77.88;;;15.02;;
62997;SDS011;55949;52.590;7.330;2023-02-15T06:28:46;23.08;;;14.05;;
62997;SDS011;55949;52.590;7.330;2023-02-15T06:29:47;26.40;;;14.27;;
62997;SDS011;55949;52.590;7.330;2023-02-15T06:30:48;22.67;;;14.45;;
62997;SDS011;55949;52.590;7.330;2023-02-15T06:31:48;28.15;;;17.50;;
62997;SDS011;55949;52.590;7.330;2023-02-15T06:32:49;38.72;;;16.95;;
62997;SDS011;55949;52.590;7.330;2023-02-15T06:33:50;32.47;;;17.55;;
62997;SDS011;55949;52.590;7.330;2023-02-15T06:34:50;32.28;;;17.90;;
62997;SDS011;55949;52.590;7.330;2023-02-15T06:35:51;28.30;;;17.58;;
62997;SDS011;55949;52.590;7.330;2023-02-15T06:36:52;29.58;;;17.63;;
62997;SDS011;55949;52.590;7.330;2023-02-15T06:37:53;29.42;;;17.73;;
62997;SDS011;55949;52.590;7.330;2023-02-15T06:38:53;30.08;;;18.85;;
62997;SDS011;55949;52.590;7.330;2023-02-15T06:39:55;32.25;;;19.40;;
62997;SDS011;55949;52.590;7.330;2023-02-15T06:40:56;31.23;;;19.05;;
62997;SDS011;55949;52.590;7.330;2023-02-15T06:41:57;28.05;;;18.38;;
62997;SDS011;55949;52.590;7.330;2023-02-15T06:42:57;26.48;;;17.40;;